Philipsburg, Montana
Current Conditions -  °F | °C
As of 10:53 PM on Thursday 18 Dec 2014 (Local Time) from KBTM Reporting Station
Overcast Overcast  
Wind Chill: -5°   Ceiling: 6500
Heat Index: -5°   Visibility: 10mi
Dew Point: -7°   Wind: 3mph
Humidity: 85%   Direction: 130°SE
Pressure: 29.99"   Gusts: NA
Location:  46.33°N, 113.29°W
Report Text: KBTM 190553Z AUTO 13003KT 10SM OVC065 M05/M07 A2999 RMK AO2 SLP210 T10501072 11039 21056 56002
Loading
Personal Weather Stations






























Interactive Weather Map New forecast layout! Learn more

10-Day Weather Forecast

Advertisements
Track Severe Weather on mobile